createdAt,value
2019-01-03T00:00:25.270Z,79.43
2019-01-03T00:03:07.432Z,79.59
2019-01-03T00:05:55.297Z,79.82
2019-01-03T00:08:28.221Z,79.70
2019-01-03T00:11:13.058Z,79.78
2019-01-03T00:13:58.872Z,79.67
2019-01-03T00:16:37.784Z,79.59
2019-01-03T00:19:19.301Z,79.41
2019-01-03T00:21:49.224Z,79.50
2019-01-03T00:24:31.332Z,79.58
2019-01-03T00:27:04.069Z,79.92
2019-01-03T00:29:49.977Z,79.59
2019-01-03T00:32:37.842Z,79.64
2019-01-03T00:35:10.527Z,79.74
2019-01-03T00:37:56.905Z,79.73
2019-01-03T00:40:44.812Z,80.01
2019-01-03T00:43:14.765Z,79.89
2019-01-03T00:45:56.748Z,79.76
2019-01-03T00:48:32.370Z,79.66
2019-01-03T00:51:08.470Z,79.71
2019-01-03T00:53:44.128Z,79.64
2019-01-03T00:56:29.811Z,79.78
2019-01-03T00:59:14.710Z,79.81
2019-01-03T01:01:44.632Z,79.83
2019-01-03T01:04:26.718Z,80.00
2019-01-03T01:06:59.380Z,79.91
2019-01-03T01:09:44.388Z,80.20
2019-01-03T01:12:26.249Z,79.75
2019-01-03T01:14:56.237Z,79.98
2019-01-03T01:17:26.205Z,79.96
2019-01-03T01:20:01.661Z,80.10
2019-01-03T01:22:40.234Z,80.05
2019-01-03T01:25:26.043Z,80.04
2019-01-03T01:27:58.814Z,80.07
2019-01-03T01:30:44.877Z,80.23
2019-01-03T01:33:30.490Z,80.28
2019-01-03T01:36:12.151Z,80.44
2019-01-03T01:38:47.864Z,80.57
2019-01-03T01:41:20.766Z,80.77
2019-01-03T01:43:53.495Z,80.92
2019-01-03T01:46:23.499Z,80.95
2019-01-03T01:48:58.846Z,80.98
2019-01-03T01:51:37.677Z,81.14
2019-01-03T01:54:23.837Z,81.16
2019-01-03T01:56:53.808Z,81.01
2019-01-03T01:59:35.795Z,80.96
2019-01-03T02:02:21.549Z,80.96
2019-01-03T02:05:06.674Z,80.84
2019-01-03T02:07:42.305Z,80.92
2019-01-03T02:10:30.523Z,80.87
2019-01-03T02:13:06.376Z,80.95
2019-01-03T02:15:36.356Z,81.06
2019-01-03T02:18:09.084Z,81.22
2019-01-03T02:20:47.866Z,81.31
2019-01-03T02:23:33.844Z,81.42
2019-01-03T02:26:12.655Z,81.54
2019-01-03T02:28:57.436Z,81.52
2019-01-03T02:31:36.376Z,81.86
2019-01-03T02:34:06.384Z,82.01
2019-01-03T02:36:36.489Z,82.15
2019-01-03T02:39:15.917Z,82.25
2019-01-03T02:41:48.679Z,82.18
2019-01-03T02:44:18.612Z,82.29
2019-01-03T02:46:51.266Z,82.51
2019-01-03T02:49:37.490Z,82.39
2019-01-03T02:52:10.130Z,82.60
2019-01-03T02:54:55.192Z,82.61
2019-01-03T02:57:30.581Z,82.64
2019-01-03T03:00:06.479Z,82.72
2019-01-03T03:02:42.402Z,82.64
2019-01-03T03:05:27.288Z,82.54
2019-01-03T03:08:09.192Z,82.47
2019-01-03T03:10:39.153Z,82.62
2019-01-03T03:13:11.768Z,82.45
2019-01-03T03:15:57.494Z,82.53
2019-01-03T03:18:39.698Z,82.30
2019-01-03T03:21:18.437Z,82.41
2019-01-03T03:23:57.317Z,82.50
2019-01-03T03:26:36.130Z,82.57
2019-01-03T03:29:08.539Z,82.60
2019-01-03T03:31:44.363Z,82.60
2019-01-03T03:34:17.259Z,82.39
2019-01-03T03:36:47.177Z,82.45
2019-01-03T03:39:26.262Z,82.44
2019-01-03T03:42:12.400Z,82.55
2019-01-03T03:44:45.073Z,82.38
2019-01-03T03:47:17.582Z,82.47
2019-01-03T03:49:50.592Z,82.46
2019-01-03T03:52:36.542Z,82.50
2019-01-03T03:55:22.525Z,82.81
2019-01-03T03:58:08.287Z,82.67
2019-01-03T04:00:54.087Z,82.67
2019-01-03T04:03:30.206Z,82.73
2019-01-03T04:06:12.082Z,82.78
2019-01-03T04:08:42.036Z,82.84
2019-01-03T04:11:14.610Z,82.86
2019-01-03T04:13:47.018Z,83.00
2019-01-03T04:16:19.873Z,82.93
2019-01-03T04:19:07.775Z,82.94
2019-01-03T04:21:53.592Z,82.92
2019-01-03T04:24:35.615Z,82.91
2019-01-03T04:27:21.777Z,82.89
2019-01-03T04:30:03.344Z,82.76
2019-01-03T04:32:48.613Z,83.19
2019-01-03T04:35:21.432Z,83.48
2019-01-03T04:38:03.293Z,83.56
2019-01-03T04:40:39.066Z,83.78
2019-01-03T04:43:09.044Z,83.83
2019-01-03T04:45:38.971Z,84.07
2019-01-03T04:48:18.181Z,84.47
2019-01-03T04:51:03.156Z,85.29
2019-01-03T04:53:33.145Z,85.83
2019-01-03T04:56:11.868Z,86.06
2019-01-03T04:58:56.910Z,86.43
2019-01-03T05:01:47.320Z,86.82
2019-01-03T05:04:20.527Z,87.01
2019-01-03T05:06:50.712Z,87.22
2019-01-03T05:09:33.278Z,87.37
2019-01-03T05:12:03.254Z,87.24
2019-01-03T05:14:42.202Z,87.43
2019-01-03T05:17:24.482Z,87.42
2019-01-03T05:20:09.429Z,87.62
2019-01-03T05:22:42.199Z,87.84
2019-01-03T05:25:12.224Z,88.25
2019-01-03T05:28:00.454Z,88.50
2019-01-03T05:30:46.159Z,88.49
2019-01-03T05:33:32.264Z,88.56
2019-01-03T05:36:17.379Z,88.76
2019-01-03T05:38:53.142Z,88.80
2019-01-03T05:41:39.121Z,88.82
2019-01-03T05:44:21.086Z,89.00
2019-01-03T05:46:59.774Z,89.00
2019-01-03T05:49:35.603Z,88.87
2019-01-03T05:52:05.563Z,88.70
2019-01-03T05:54:35.527Z,88.58
2019-01-03T05:57:14.570Z,88.55
2019-01-03T06:00:00.284Z,88.68
2019-01-03T06:02:32.983Z,88.74
2019-01-03T06:05:11.722Z,88.88
2019-01-03T06:07:57.616Z,88.69
2019-01-03T06:10:33.191Z,88.67
2019-01-03T06:13:12.002Z,88.69
2019-01-03T06:15:47.884Z,88.65
2019-01-03T06:18:20.748Z,88.67
2019-01-03T06:21:02.455Z,88.67
2019-01-03T06:23:35.117Z,88.55
2019-01-03T06:26:05.030Z,88.39
2019-01-03T06:28:34.990Z,88.29
2019-01-03T06:31:04.957Z,88.35
2019-01-03T06:33:52.869Z,88.04
2019-01-03T06:36:22.855Z,88.52
2019-01-03T06:38:52.796Z,88.58
2019-01-03T06:41:31.563Z,88.63
2019-01-03T06:44:16.562Z,88.87
2019-01-03T06:47:02.418Z,88.38
2019-01-03T06:49:32.494Z,88.48
2019-01-03T06:52:02.420Z,88.65
2019-01-03T06:54:41.103Z,88.62
2019-01-03T06:57:28.861Z,88.55
2019-01-03T07:00:01.343Z,88.60
2019-01-03T07:02:47.648Z,88.60
2019-01-03T07:05:20.498Z,88.47
2019-01-03T07:07:50.496Z,88.47
2019-01-03T07:10:36.618Z,88.52
2019-01-03T07:13:09.494Z,88.62
2019-01-03T07:15:42.159Z,88.61
2019-01-03T07:18:24.135Z,88.56
2019-01-03T07:20:54.043Z,88.55
2019-01-03T07:23:26.590Z,88.40
2019-01-03T07:26:02.260Z,88.51
2019-01-03T07:28:35.164Z,88.56
2019-01-03T07:31:20.780Z,88.52
2019-01-03T07:33:56.488Z,88.56
2019-01-03T07:36:29.197Z,88.53
2019-01-03T07:39:15.544Z,88.42
2019-01-03T07:41:57.194Z,88.37
2019-01-03T07:44:39.170Z,88.15
2019-01-03T07:47:24.958Z,88.05
2019-01-03T07:50:09.931Z,88.25
2019-01-03T07:52:42.275Z,88.23
2019-01-03T07:55:28.255Z,88.26
2019-01-03T07:57:58.254Z,88.14
2019-01-03T08:00:39.869Z,88.19
2019-01-03T08:03:26.274Z,88.13
2019-01-03T08:06:01.990Z,87.99
2019-01-03T08:08:47.997Z,88.07
2019-01-03T08:11:34.355Z,87.84
2019-01-03T08:14:07.032Z,87.73
2019-01-03T08:16:48.821Z,87.86
2019-01-03T08:19:24.754Z,87.69
2019-01-03T08:22:00.538Z,87.54
2019-01-03T08:24:31.183Z,87.45
2019-01-03T08:27:01.087Z,87.44
2019-01-03T08:32:24.273Z,87.30
2019-01-03T08:34:59.899Z,87.21
2019-01-03T08:37:29.968Z,86.72
2019-01-03T08:40:05.675Z,86.43
2019-01-03T08:42:35.771Z,86.45
2019-01-03T08:45:11.751Z,86.12
2019-01-03T08:47:53.409Z,85.93
2019-01-03T08:50:26.078Z,85.95
2019-01-03T08:52:59.820Z,85.65
2019-01-03T08:55:48.151Z,85.89
2019-01-03T08:58:21.036Z,85.80
2019-01-03T09:00:55.846Z,85.17
2019-01-03T09:03:42.654Z,84.77
2019-01-03T09:06:28.953Z,84.61
2019-01-03T09:09:14.703Z,84.43
2019-01-03T09:12:01.901Z,84.36
2019-01-03T09:14:41.792Z,83.99
2019-01-03T09:17:28.179Z,83.83
2019-01-03T09:20:13.253Z,83.98
2019-01-03T09:22:52.023Z,83.75
2019-01-03T09:25:28.152Z,83.74
2019-01-03T09:28:14.044Z,83.11
2019-01-03T09:31:00.302Z,82.71
2019-01-03T09:33:48.621Z,82.63
2019-01-03T09:36:18.592Z,82.13
2019-01-03T09:38:57.085Z,82.58
2019-01-03T09:41:30.793Z,82.35
2019-01-03T09:44:17.044Z,82.47
2019-01-03T09:46:45.476Z,82.18
2019-01-03T09:49:13.863Z,82.57
2019-01-03T09:51:42.524Z,82.91
2019-01-03T09:54:10.854Z,82.15
2019-01-03T09:56:39.266Z,82.25
2019-01-03T09:59:07.652Z,81.65
2019-01-03T10:01:36.124Z,81.55
2019-01-03T10:04:04.448Z,80.82
2019-01-03T10:06:32.716Z,80.90
2019-01-03T10:09:01.969Z,81.35
2019-01-03T10:11:30.295Z,81.63
2019-01-03T10:13:58.709Z,81.73
2019-01-03T10:16:26.999Z,81.69
2019-01-03T10:18:55.544Z,81.37
2019-01-03T10:21:23.858Z,80.98
2019-01-03T10:23:52.288Z,79.80
2019-01-03T10:26:20.792Z,79.04
2019-01-03T10:28:49.169Z,79.36
2019-01-03T10:31:17.464Z,79.56
2019-01-03T10:33:45.817Z,79.19
2019-01-03T10:36:14.088Z,79.38
2019-01-03T10:38:42.516Z,79.87
2019-01-03T10:41:10.813Z,80.25
2019-01-03T10:43:39.096Z,79.84
2019-01-03T10:46:07.566Z,79.88
2019-01-03T10:48:35.837Z,80.07
2019-01-03T10:51:04.210Z,79.01
2019-01-03T10:53:32.785Z,78.67
2019-01-03T10:56:01.513Z,78.99
2019-01-03T10:58:30.045Z,78.63
2019-01-03T11:00:58.338Z,79.08
2019-01-03T11:03:27.124Z,78.15
2019-01-03T11:05:57.396Z,79.30
2019-01-03T11:08:25.661Z,78.40
2019-01-03T11:10:53.955Z,79.25
2019-01-03T11:13:22.294Z,78.91
2019-01-03T11:15:50.590Z,79.19
2019-01-03T11:18:18.987Z,78.39
2019-01-03T11:20:47.386Z,77.56
2019-01-03T11:23:15.810Z,76.81
2019-01-03T11:25:44.186Z,76.88
2019-01-03T11:28:12.550Z,77.11
2019-01-03T11:30:41.541Z,77.04
2019-01-03T11:33:11.221Z,77.49
2019-01-03T11:35:42.777Z,77.78
2019-01-03T11:38:11.411Z,77.88
2019-01-03T11:40:39.709Z,77.85
2019-01-03T11:43:08.159Z,77.96
2019-01-03T11:45:36.416Z,78.69
2019-01-03T11:48:04.694Z,78.85
2019-01-03T11:50:33.000Z,78.10
2019-01-03T11:53:01.275Z,78.57
2019-01-03T11:55:29.544Z,78.19
2019-01-03T11:57:58.455Z,77.07
2019-01-03T12:00:26.805Z,77.39
2019-01-03T12:02:58.165Z,76.35
2019-01-03T12:05:30.844Z,77.57
2019-01-03T12:07:59.610Z,76.82
2019-01-03T12:10:29.441Z,76.62
2019-01-03T12:12:58.109Z,76.73
2019-01-03T12:15:26.798Z,76.68
2019-01-03T12:17:55.336Z,75.88
2019-01-03T12:20:24.117Z,76.28
2019-01-03T12:22:52.445Z,74.73
2019-01-03T12:25:20.710Z,74.62
2019-01-03T12:27:49.014Z,72.82
2019-01-03T12:30:17.412Z,73.04
2019-01-03T12:32:45.727Z,74.04
2019-01-03T12:35:13.999Z,73.92
2019-01-03T12:37:42.282Z,73.79
2019-01-03T12:40:10.645Z,73.37
2019-01-03T12:42:39.421Z,73.87
2019-01-03T12:45:09.093Z,75.05
2019-01-03T12:47:37.654Z,74.62
2019-01-03T12:50:09.325Z,74.50
2019-01-03T12:52:37.836Z,74.94
2019-01-03T12:55:06.698Z,75.30
2019-01-03T12:57:35.218Z,75.02
2019-01-03T13:00:05.936Z,74.62
2019-01-03T13:02:34.844Z,75.16
2019-01-03T13:05:03.412Z,74.91
2019-01-03T13:07:31.908Z,74.51
2019-01-03T13:10:00.438Z,74.70
2019-01-03T13:12:29.015Z,74.67
2019-01-03T13:14:57.583Z,73.81
2019-01-03T13:17:26.113Z,74.05
2019-01-03T13:19:54.706Z,74.16
2019-01-03T13:22:23.346Z,73.89
2019-01-03T13:24:52.027Z,74.01
2019-01-03T13:27:20.519Z,74.45
2019-01-03T13:29:48.940Z,74.51
2019-01-03T13:32:17.311Z,73.06
2019-01-03T13:34:45.845Z,73.76
2019-01-03T13:37:14.173Z,73.27
2019-01-03T13:39:42.462Z,73.38
2019-01-03T13:42:11.074Z,73.69
2019-01-03T13:44:39.799Z,73.87
2019-01-03T13:47:08.542Z,73.59
2019-01-03T13:49:37.043Z,73.74
2019-01-03T13:52:05.652Z,74.50
2019-01-03T13:54:34.207Z,75.27
2019-01-03T13:57:02.984Z,75.45
2019-01-03T13:59:31.533Z,75.83
2019-01-03T14:02:00.137Z,75.75
2019-01-03T14:04:28.936Z,75.98
2019-01-03T14:06:57.459Z,76.69
2019-01-03T14:09:26.163Z,76.43
2019-01-03T14:11:54.771Z,76.10
2019-01-03T14:14:23.386Z,76.15
2019-01-03T14:16:51.931Z,76.48
2019-01-03T14:19:20.474Z,76.72
2019-01-03T14:21:48.994Z,76.06
2019-01-03T14:24:17.640Z,75.81
2019-01-03T14:26:46.345Z,75.90
2019-01-03T14:29:14.973Z,75.72
2019-01-03T14:31:44.073Z,75.81
2019-01-03T14:34:12.451Z,75.81
2019-01-03T14:36:40.777Z,75.96
2019-01-03T14:39:09.696Z,76.09
2019-01-03T14:41:38.166Z,77.05
2019-01-03T14:44:06.753Z,77.09
2019-01-03T14:46:35.034Z,76.85
2019-01-03T14:49:03.301Z,77.04
2019-01-03T14:51:31.760Z,76.85
2019-01-03T14:54:00.311Z,76.42
2019-01-03T14:56:28.718Z,76.65
2019-01-03T14:58:57.119Z,77.01
2019-01-03T15:01:25.703Z,76.52
2019-01-03T15:03:54.373Z,76.68
2019-01-03T15:06:22.694Z,76.91
2019-01-03T15:08:51.020Z,77.43
2019-01-03T15:11:19.478Z,77.69
2019-01-03T15:13:47.854Z,77.51
2019-01-03T15:16:16.338Z,77.81
2019-01-03T15:18:44.663Z,78.03
2019-01-03T15:21:13.193Z,78.22
2019-01-03T15:23:41.598Z,78.41
2019-01-03T15:26:09.880Z,78.74
2019-01-03T15:28:38.252Z,78.92
2019-01-03T15:31:06.511Z,79.38
2019-01-03T15:33:34.914Z,79.25
2019-01-03T15:36:03.220Z,79.68
2019-01-03T15:38:31.856Z,79.71
2019-01-03T15:41:00.452Z,79.94
2019-01-03T15:43:29.177Z,80.19
2019-01-03T15:45:57.933Z,80.20
2019-01-03T15:48:26.636Z,80.28
2019-01-03T15:50:55.040Z,80.62
2019-01-03T15:53:23.340Z,81.25
2019-01-03T15:55:51.601Z,81.10
2019-01-03T15:58:20.139Z,81.36
2019-01-03T16:00:48.476Z,81.38
2019-01-03T16:03:16.871Z,81.37
2019-01-03T16:05:45.220Z,81.57
2019-01-03T16:08:13.519Z,81.94
2019-01-03T16:10:41.810Z,82.17
2019-01-03T16:13:10.161Z,82.19
2019-01-03T16:15:38.545Z,82.63
2019-01-03T16:18:06.957Z,82.92
2019-01-03T16:20:35.212Z,83.26
2019-01-03T16:23:03.473Z,83.51
2019-01-03T16:25:32.199Z,83.82
2019-01-03T16:28:00.719Z,83.85
2019-01-03T16:30:29.168Z,83.94
2019-01-03T16:32:58.539Z,84.14
2019-01-03T16:35:27.065Z,84.16
2019-01-03T16:37:55.380Z,84.53
2019-01-03T16:40:23.810Z,84.77
2019-01-03T16:42:52.088Z,84.89
2019-01-03T16:45:20.486Z,85.14
2019-01-03T16:47:48.866Z,85.37
2019-01-03T16:50:17.196Z,85.60
2019-01-03T16:52:45.470Z,85.73
2019-01-03T16:55:13.769Z,85.88
2019-01-03T16:57:42.056Z,85.75
2019-01-03T17:00:11.731Z,85.89
2019-01-03T17:02:41.125Z,85.87
2019-01-03T17:05:09.492Z,85.94
2019-01-03T17:07:37.788Z,85.82
2019-01-03T17:10:09.370Z,86.01
2019-01-03T17:12:37.732Z,86.08
2019-01-03T17:15:06.809Z,86.09
2019-01-03T17:17:35.360Z,85.90
2019-01-03T17:20:05.962Z,85.93
2019-01-03T17:22:34.219Z,86.00
2019-01-03T17:25:02.617Z,86.00
2019-01-03T17:27:30.964Z,85.99
2019-01-03T17:29:59.460Z,86.04
2019-01-03T17:32:27.755Z,85.94
2019-01-03T17:34:56.016Z,85.92
2019-01-03T17:37:24.334Z,86.11
2019-01-03T17:39:52.607Z,86.20
2019-01-03T17:42:21.079Z,86.12
2019-01-03T17:44:49.502Z,86.27
2019-01-03T17:47:17.760Z,86.37
2019-01-03T17:49:46.083Z,86.29
2019-01-03T17:52:14.431Z,86.32
2019-01-03T17:54:42.769Z,86.75
2019-01-03T17:57:11.061Z,87.15
2019-01-03T17:59:39.586Z,87.17
2019-01-03T18:02:07.977Z,87.56
2019-01-03T18:04:36.882Z,87.56
2019-01-03T18:07:05.768Z,87.57
2019-01-03T18:09:34.226Z,87.71
2019-01-03T18:12:02.488Z,87.59
2019-01-03T18:14:31.066Z,87.42
2019-01-03T18:16:59.822Z,87.09
2019-01-03T18:19:28.519Z,87.21
2019-01-03T18:21:57.211Z,87.24
2019-01-03T18:24:25.924Z,87.32
2019-01-03T18:26:54.645Z,87.23
2019-01-03T18:29:23.719Z,87.28
2019-01-03T18:31:52.525Z,87.31
2019-01-03T18:34:21.279Z,87.60
2019-01-03T18:36:49.846Z,87.68
2019-01-03T18:39:18.193Z,87.76
2019-01-03T18:41:46.692Z,87.80
2019-01-03T18:44:15.850Z,87.88
2019-01-03T18:46:53.009Z,87.94
2019-01-03T18:49:27.261Z,87.88
2019-01-03T18:52:00.672Z,87.75
2019-01-03T18:54:30.557Z,87.58
2019-01-03T18:57:00.126Z,87.54
2019-01-03T18:59:28.645Z,87.75
2019-01-03T19:01:57.051Z,87.85
2019-01-03T19:04:25.758Z,87.90
2019-01-03T19:06:54.156Z,88.04
2019-01-03T19:09:22.855Z,87.97
2019-01-03T19:11:51.368Z,87.85
2019-01-03T19:14:19.866Z,87.84
2019-01-03T19:16:48.323Z,87.82
2019-01-03T19:19:17.199Z,87.60
2019-01-03T19:21:45.699Z,87.68
2019-01-03T19:24:14.281Z,87.70
2019-01-03T19:26:42.983Z,87.87
2019-01-03T19:29:11.481Z,87.88
2019-01-03T19:31:40.414Z,87.91
2019-01-03T19:34:08.807Z,87.88
2019-01-03T19:36:37.424Z,88.01
2019-01-03T19:39:06.075Z,87.94
2019-01-03T19:41:34.771Z,87.83
2019-01-03T19:44:03.698Z,88.01
2019-01-03T19:46:32.309Z,88.18
2019-01-03T19:49:00.951Z,88.05
2019-01-03T19:51:29.622Z,88.15
2019-01-03T19:53:58.155Z,88.05
2019-01-03T19:56:29.029Z,88.15
2019-01-03T19:58:57.427Z,88.37
2019-01-03T20:01:25.986Z,88.39
2019-01-03T20:03:55.040Z,88.47
2019-01-03T20:06:23.460Z,88.43
2019-01-03T20:08:52.021Z,88.44
2019-01-03T20:11:20.347Z,88.47
2019-01-03T20:13:49.013Z,88.59
2019-01-03T20:16:17.824Z,88.71
2019-01-03T20:18:46.487Z,88.74
2019-01-03T20:21:14.982Z,88.60
2019-01-03T20:23:43.538Z,88.63
2019-01-03T20:26:12.195Z,88.87
2019-01-03T20:28:40.839Z,88.88
2019-01-03T20:31:09.451Z,89.09
2019-01-03T20:33:38.027Z,89.23
2019-01-03T20:36:06.421Z,89.36
2019-01-03T20:38:34.737Z,89.45
2019-01-03T20:41:09.953Z,89.52
2019-01-03T20:43:39.349Z,89.63
2019-01-03T20:46:07.787Z,89.60
2019-01-03T20:48:41.538Z,89.91
2019-01-03T20:51:09.994Z,89.86
2019-01-03T20:53:49.609Z,89.94
2019-01-03T20:56:19.550Z,89.80
2019-01-03T20:58:48.699Z,89.92
2019-01-03T21:01:17.072Z,89.88
2019-01-03T21:04:00.426Z,90.06
2019-01-03T21:06:44.816Z,90.05
2019-01-03T21:09:21.813Z,90.35
2019-01-03T21:12:01.023Z,90.57
2019-01-03T21:14:41.186Z,90.53
2019-01-03T21:17:17.245Z,90.50
2019-01-03T21:19:52.242Z,90.67
2019-01-03T21:22:25.681Z,90.62
2019-01-03T21:24:54.256Z,90.58
2019-01-03T21:27:22.585Z,90.71
2019-01-03T21:29:51.084Z,90.85
2019-01-03T21:32:19.435Z,90.72
2019-01-03T21:34:53.351Z,90.73
2019-01-03T21:37:21.883Z,90.76
2019-01-03T21:39:50.832Z,90.68
2019-01-03T21:42:20.382Z,90.63
2019-01-03T21:44:48.789Z,90.63
2019-01-03T21:47:18.664Z,90.65
2019-01-03T21:49:47.184Z,90.68
2019-01-03T21:52:15.771Z,90.66
2019-01-03T21:54:44.272Z,90.48
2019-01-03T21:57:12.751Z,90.19
2019-01-03T21:59:41.207Z,90.20
2019-01-03T22:02:09.597Z,90.25
2019-01-03T22:04:38.068Z,90.09
2019-01-03T22:07:06.479Z,90.21
2019-01-03T22:09:34.844Z,90.33
2019-01-03T22:12:03.356Z,90.25
2019-01-03T22:14:31.694Z,90.58
2019-01-03T22:17:00.116Z,90.66
2019-01-03T22:19:28.511Z,90.78
2019-01-03T22:21:56.846Z,90.72
2019-01-03T22:24:25.333Z,90.47
2019-01-03T22:26:53.665Z,90.07
2019-01-03T22:29:22.381Z,89.83
2019-01-03T22:31:51.705Z,90.17
2019-01-03T22:34:20.979Z,90.57
2019-01-03T22:36:50.264Z,90.97
2019-01-03T22:39:18.772Z,91.30
2019-01-03T22:41:47.100Z,91.49
2019-01-03T22:44:15.916Z,91.64
2019-01-03T22:46:44.718Z,91.79
2019-01-03T22:49:13.790Z,91.88
2019-01-03T22:51:44.871Z,91.80
2019-01-03T22:54:13.553Z,91.60
2019-01-03T22:56:42.074Z,91.21
2019-01-03T22:59:13.505Z,91.20
2019-01-03T23:01:42.654Z,91.32
2019-01-03T23:04:11.921Z,91.44
2019-01-03T23:06:40.311Z,91.65
2019-01-03T23:09:09.168Z,91.77
2019-01-03T23:11:37.558Z,91.92
2019-01-03T23:14:05.991Z,92.09
2019-01-03T23:16:34.303Z,92.08
2019-01-03T23:19:03.208Z,91.96
2019-01-03T23:21:31.619Z,91.63
2019-01-03T23:24:00.154Z,91.45
2019-01-03T23:26:29.487Z,91.30
2019-01-03T23:28:59.236Z,91.10
2019-01-03T23:31:32.618Z,91.59
2019-01-03T23:34:01.146Z,91.75
2019-01-03T23:36:29.487Z,91.95
2019-01-03T23:38:57.753Z,92.04
2019-01-03T23:41:26.357Z,91.98
2019-01-03T23:43:54.640Z,91.95
2019-01-03T23:46:22.971Z,91.95
2019-01-03T23:48:51.330Z,91.84
2019-01-03T23:51:19.677Z,91.85
2019-01-03T23:53:48.151Z,91.53
2019-01-03T23:56:16.497Z,91.61
2019-01-03T23:58:45.058Z,91.65
